createdAt,value
2019-05-17T00:00:23.106Z,13.47
2019-05-17T00:02:53.530Z,13.49
2019-05-17T00:05:26.365Z,13.42
2019-05-17T00:07:56.770Z,13.44
2019-05-17T00:10:27.055Z,13.47
2019-05-17T00:12:59.556Z,13.50
2019-05-17T00:15:30.262Z,13.55
2019-05-17T00:18:00.902Z,13.55
2019-05-17T00:20:31.319Z,13.46
2019-05-17T00:23:01.854Z,13.45
2019-05-17T00:25:32.490Z,13.45
2019-05-17T00:28:03.056Z,13.45
2019-05-17T00:30:33.641Z,13.49
2019-05-17T00:33:04.214Z,13.53
2019-05-17T00:35:34.395Z,13.55
2019-05-17T00:38:06.600Z,13.56
2019-05-17T00:40:36.987Z,13.56
2019-05-17T00:43:07.320Z,13.50
2019-05-17T00:45:37.922Z,13.48
2019-05-17T00:48:08.480Z,13.51
2019-05-17T00:50:40.393Z,13.50
2019-05-17T00:53:10.762Z,13.45
2019-05-17T00:55:41.274Z,13.48
2019-05-17T00:58:12.168Z,13.54
2019-05-17T01:00:42.552Z,13.52
2019-05-17T01:03:13.293Z,13.51
2019-05-17T01:05:44.094Z,13.51
2019-05-17T01:08:17.287Z,13.54
2019-05-17T01:10:49.112Z,13.54
2019-05-17T01:13:19.606Z,13.55
2019-05-17T01:15:50.144Z,13.55
2019-05-17T01:18:20.865Z,13.60
2019-05-17T01:20:51.461Z,13.62
2019-05-17T01:23:22.126Z,13.64
2019-05-17T01:25:52.649Z,13.62
2019-05-17T01:28:22.933Z,13.62
2019-05-17T01:30:53.711Z,13.62
2019-05-17T01:33:26.382Z,13.64
2019-05-17T01:35:57.260Z,13.66
2019-05-17T01:38:27.578Z,13.65
2019-05-17T01:40:58.228Z,13.63
2019-05-17T01:43:30.622Z,13.63
2019-05-17T01:46:01.291Z,13.66
2019-05-17T01:48:31.928Z,13.66
2019-05-17T01:51:02.480Z,13.65
2019-05-17T01:53:36.317Z,13.62
2019-05-17T01:56:06.581Z,13.63
2019-05-17T01:58:37.213Z,13.62
2019-05-17T02:01:07.908Z,13.64
2019-05-17T02:03:39.087Z,13.62
2019-05-17T02:06:09.610Z,13.62
2019-05-17T02:08:40.149Z,13.62
2019-05-17T02:11:10.622Z,13.60
2019-05-17T02:13:41.043Z,13.59
2019-05-17T02:16:11.520Z,13.59
2019-05-17T02:18:42.073Z,13.60
2019-05-17T02:21:12.486Z,13.61
2019-05-17T02:23:43.121Z,13.65
2019-05-17T02:26:13.628Z,13.64
2019-05-17T02:28:44.270Z,13.66
2019-05-17T02:31:14.722Z,13.65
2019-05-17T02:33:45.228Z,13.65
2019-05-17T02:36:15.858Z,13.66
2019-05-17T02:38:46.405Z,13.67
2019-05-17T02:41:17.125Z,13.66
2019-05-17T02:43:48.725Z,13.63
2019-05-17T02:46:19.009Z,13.63
2019-05-17T02:48:53.561Z,13.63
2019-05-17T02:51:23.647Z,13.64
2019-05-17T02:53:54.790Z,13.64
2019-05-17T02:56:25.462Z,13.63
2019-05-17T02:58:55.683Z,13.62
2019-05-17T03:01:25.968Z,13.64
2019-05-17T03:03:56.410Z,13.67
2019-05-17T03:06:27.004Z,13.70
2019-05-17T03:08:57.607Z,13.75
2019-05-17T03:11:28.075Z,13.80
2019-05-17T03:13:58.652Z,13.85
2019-05-17T03:16:29.030Z,13.93
2019-05-17T03:18:59.215Z,13.98
2019-05-17T03:21:29.777Z,14.00
2019-05-17T03:24:03.157Z,14.00
2019-05-17T03:26:33.436Z,14.00
2019-05-17T03:29:03.935Z,14.04
2019-05-17T03:31:42.620Z,14.12
2019-05-17T03:34:07.674Z,14.17
2019-05-17T03:36:38.285Z,14.16
2019-05-17T03:39:08.727Z,14.19
2019-05-17T03:41:42.657Z,14.38
2019-05-17T03:44:13.510Z,14.41
2019-05-17T03:46:43.886Z,14.25
2019-05-17T03:49:14.453Z,14.30
2019-05-17T03:51:46.189Z,14.30
2019-05-17T03:54:16.594Z,14.32
2019-05-17T03:56:47.270Z,14.20
2019-05-17T03:59:17.651Z,14.29
2019-05-17T04:01:52.528Z,14.19
2019-05-17T04:04:22.867Z,14.08
2019-05-17T04:06:53.625Z,14.15
2019-05-17T04:09:25.285Z,14.23
2019-05-17T04:11:55.990Z,14.14
2019-05-17T04:14:26.605Z,14.27
2019-05-17T04:16:56.885Z,14.17
2019-05-17T04:19:27.517Z,14.14
2019-05-17T04:21:58.045Z,14.19
2019-05-17T04:24:32.347Z,14.25
2019-05-17T04:27:04.029Z,14.63
2019-05-17T04:29:34.830Z,14.69
2019-05-17T04:32:05.443Z,15.18
2019-05-17T04:34:38.311Z,15.14
2019-05-17T04:37:08.509Z,15.00
2019-05-17T04:39:39.115Z,14.73
2019-05-17T04:42:09.650Z,14.57
2019-05-17T04:44:43.169Z,14.49
2019-05-17T04:47:13.611Z,14.69
2019-05-17T04:49:44.243Z,14.82
2019-05-17T04:52:14.836Z,14.73
2019-05-17T04:54:45.494Z,14.72
2019-05-17T04:57:15.891Z,14.53
2019-05-17T04:59:46.327Z,14.57
2019-05-17T05:02:17.268Z,14.53
2019-05-17T05:04:47.842Z,14.57
2019-05-17T05:07:24.503Z,14.63
2019-05-17T05:09:54.899Z,14.98
2019-05-17T05:12:25.507Z,15.10
2019-05-17T05:14:56.151Z,15.02
2019-05-17T05:17:26.663Z,15.35
2019-05-17T05:19:58.350Z,15.46
2019-05-17T05:22:33.086Z,15.04
2019-05-17T05:25:06.777Z,14.86
2019-05-17T05:27:37.574Z,14.82
2019-05-17T05:30:11.870Z,15.10
2019-05-17T05:32:42.755Z,15.00
2019-05-17T05:35:14.294Z,14.98
2019-05-17T05:37:46.218Z,14.97
2019-05-17T05:40:24.597Z,14.91
2019-05-17T05:42:55.195Z,14.89
2019-05-17T05:45:25.646Z,15.29
2019-05-17T05:47:56.178Z,15.54
2019-05-17T05:50:26.811Z,15.88
2019-05-17T05:53:15.907Z,16.37
2019-05-17T05:55:46.209Z,17.27
2019-05-17T05:58:16.832Z,17.30
2019-05-17T06:00:47.350Z,17.67
2019-05-17T06:03:19.859Z,17.81
2019-05-17T06:05:52.344Z,17.37
2019-05-17T06:08:22.988Z,17.25
2019-05-17T06:10:53.402Z,17.44
2019-05-17T06:13:24.950Z,17.88
2019-05-17T06:15:56.958Z,17.99
2019-05-17T06:18:31.758Z,18.09
2019-05-17T06:21:02.689Z,18.13
2019-05-17T06:23:32.633Z,18.44
2019-05-17T06:26:04.668Z,18.56
2019-05-17T06:28:35.244Z,18.72
2019-05-17T06:31:05.879Z,18.54
2019-05-17T06:33:36.511Z,18.30
2019-05-17T06:36:13.716Z,18.18
2019-05-17T06:38:44.576Z,18.35
2019-05-17T06:41:15.105Z,18.42
2019-05-17T06:43:45.387Z,18.28
2019-05-17T06:46:16.890Z,18.50
2019-05-17T06:48:49.604Z,19.05
2019-05-17T06:51:22.017Z,20.25
2019-05-17T06:53:52.483Z,21.07
2019-05-17T06:56:23.062Z,20.82
2019-05-17T06:58:53.678Z,20.67
2019-05-17T07:01:29.186Z,20.46
2019-05-17T07:04:00.101Z,20.33
2019-05-17T07:06:32.031Z,21.13
2019-05-17T07:09:05.577Z,21.46
2019-05-17T07:11:36.221Z,22.71
2019-05-17T07:14:06.603Z,24.31
2019-05-17T07:16:39.473Z,26.12
2019-05-17T07:19:16.907Z,26.34
2019-05-17T07:21:49.330Z,27.02
2019-05-17T07:24:19.870Z,26.81
2019-05-17T07:26:50.281Z,26.47
2019-05-17T07:29:20.554Z,26.82
2019-05-17T07:31:56.207Z,26.82
2019-05-17T07:34:30.744Z,27.16
2019-05-17T07:37:00.163Z,25.34
2019-05-17T07:39:30.966Z,24.54
2019-05-17T07:42:04.256Z,24.64
2019-05-17T07:44:34.785Z,24.16
2019-05-17T07:47:05.315Z,26.42
2019-05-17T07:49:40.330Z,25.57
2019-05-17T07:52:10.285Z,24.39
2019-05-17T07:54:42.082Z,23.63
2019-05-17T07:57:12.339Z,22.71
2019-05-17T07:59:42.977Z,23.34
2019-05-17T08:02:14.179Z,24.30
2019-05-17T08:05:06.049Z,23.75
2019-05-17T08:07:36.546Z,23.42
2019-05-17T08:10:07.468Z,23.06
2019-05-17T08:12:59.788Z,22.89
2019-05-17T08:15:30.451Z,23.07
2019-05-17T08:18:02.617Z,23.66
2019-05-17T08:20:34.759Z,24.74
2019-05-17T08:23:10.225Z,25.68
2019-05-17T08:25:52.138Z,25.91
2019-05-17T08:28:15.363Z,26.85
2019-05-17T08:30:45.992Z,25.65
2019-05-17T08:33:16.588Z,25.77
2019-05-17T08:35:49.323Z,26.72
2019-05-17T08:38:20.513Z,26.79
2019-05-17T08:40:51.263Z,27.29
2019-05-17T08:43:21.546Z,26.76
2019-05-17T08:45:52.359Z,27.49
2019-05-17T08:48:22.902Z,26.25
2019-05-17T08:51:00.250Z,26.91
2019-05-17T08:53:32.953Z,26.53
2019-05-17T08:56:03.402Z,26.11
2019-05-17T08:58:33.703Z,26.56
2019-05-17T09:01:14.639Z,27.22
2019-05-17T09:03:45.435Z,28.24
2019-05-17T09:06:19.760Z,27.45
2019-05-17T09:08:49.964Z,27.37
2019-05-17T09:11:21.628Z,27.33
2019-05-17T09:13:57.948Z,27.25
2019-05-17T09:16:24.712Z,27.02
2019-05-17T09:19:14.968Z,28.51
2019-05-17T09:21:46.096Z,29.89
2019-05-17T09:24:16.840Z,28.71
2019-05-17T09:26:49.298Z,27.82
2019-05-17T09:29:20.090Z,27.07
2019-05-17T09:31:51.160Z,27.13
2019-05-17T09:34:25.075Z,27.18
2019-05-17T09:36:55.789Z,27.35
2019-05-17T09:39:26.528Z,28.86
2019-05-17T09:41:59.429Z,28.09
2019-05-17T09:44:40.396Z,28.08
2019-05-17T09:47:10.966Z,28.55
2019-05-17T09:49:41.473Z,29.43
2019-05-17T09:52:11.793Z,30.12
2019-05-17T09:54:45.467Z,29.84
2019-05-17T09:57:16.955Z,29.78
2019-05-17T09:59:49.542Z,29.54
2019-05-17T10:02:21.052Z,29.18
2019-05-17T10:04:51.375Z,29.48
2019-05-17T10:07:23.533Z,29.97
2019-05-17T10:09:54.819Z,28.79
2019-05-17T10:12:26.535Z,28.42
2019-05-17T10:15:00.288Z,28.50
2019-05-17T10:17:49.916Z,27.72
2019-05-17T10:20:20.814Z,27.91
2019-05-17T10:22:51.086Z,28.20
2019-05-17T10:25:22.675Z,27.72
2019-05-17T10:27:53.057Z,27.92
2019-05-17T10:30:23.574Z,27.94
2019-05-17T10:32:54.163Z,28.84
2019-05-17T10:35:43.183Z,29.42
2019-05-17T10:38:13.549Z,29.34
2019-05-17T10:41:03.757Z,28.49
2019-05-17T10:43:34.374Z,27.04
2019-05-17T10:46:05.029Z,26.47
2019-05-17T10:48:35.616Z,26.74
2019-05-17T10:51:06.939Z,27.31
2019-05-17T10:53:40.279Z,27.39
2019-05-17T10:56:10.705Z,26.95
2019-05-17T10:58:42.367Z,26.88
2019-05-17T11:01:14.192Z,26.72
2019-05-17T11:03:44.610Z,26.93
2019-05-17T11:06:15.826Z,27.22
2019-05-17T11:08:46.526Z,27.19
2019-05-17T11:11:30.324Z,27.14
2019-05-17T11:14:06.427Z,26.46
2019-05-17T11:16:39.675Z,26.40
2019-05-17T11:19:10.260Z,26.84
2019-05-17T11:21:43.354Z,27.24
2019-05-17T11:24:14.883Z,27.13
2019-05-17T11:26:46.341Z,27.14
2019-05-17T11:29:16.668Z,26.76
2019-05-17T11:31:53.555Z,26.37
2019-05-17T11:34:29.531Z,26.78
2019-05-17T11:37:01.361Z,26.15
2019-05-17T11:39:38.018Z,26.55
2019-05-17T11:42:20.234Z,27.41
2019-05-17T11:44:50.937Z,27.81
2019-05-17T11:47:21.799Z,27.57
2019-05-17T11:50:00.839Z,26.79
2019-05-17T11:52:32.629Z,26.88
2019-05-17T11:55:03.847Z,26.89
2019-05-17T11:57:34.456Z,27.74
2019-05-17T12:00:07.451Z,28.12
2019-05-17T12:02:37.859Z,28.15
2019-05-17T12:05:10.976Z,28.27
2019-05-17T12:08:19.390Z,28.32
2019-05-17T12:10:57.139Z,28.42
2019-05-17T12:13:28.424Z,28.63
2019-05-17T12:16:03.903Z,29.34
2019-05-17T12:18:34.278Z,29.96
2019-05-17T12:21:07.586Z,30.24
2019-05-17T12:23:42.448Z,30.18
2019-05-17T12:26:17.089Z,29.83
2019-05-17T12:29:07.108Z,29.94
2019-05-17T12:31:38.551Z,29.00
2019-05-17T12:34:09.085Z,28.94
2019-05-17T12:36:39.817Z,29.51
2019-05-17T12:39:14.268Z,30.07
2019-05-17T12:42:04.532Z,29.36
2019-05-17T12:44:37.186Z,28.73
2019-05-17T12:47:08.197Z,28.31
2019-05-17T12:49:39.922Z,28.27
2019-05-17T12:52:11.661Z,28.41
2019-05-17T12:54:41.846Z,28.71
2019-05-17T12:57:35.798Z,28.49
2019-05-17T13:00:06.762Z,28.44
2019-05-17T13:02:38.291Z,28.42
2019-05-17T13:05:08.621Z,29.06
2019-05-17T13:07:58.655Z,29.28
2019-05-17T13:10:30.974Z,29.50
2019-05-17T13:13:02.629Z,29.60
2019-05-17T13:15:33.671Z,29.92
2019-05-17T13:18:20.581Z,29.78
2019-05-17T13:20:51.074Z,29.59
2019-05-17T13:23:25.261Z,29.85
2019-05-17T13:26:00.734Z,29.89
2019-05-17T13:28:31.364Z,30.07
2019-05-17T13:31:03.300Z,30.01
2019-05-17T13:33:33.701Z,29.96
2019-05-17T13:36:08.349Z,29.85
2019-05-17T13:38:45.599Z,30.65
2019-05-17T13:41:16.412Z,30.80
2019-05-17T13:43:48.196Z,30.54
2019-05-17T13:46:32.057Z,30.75
2019-05-17T13:48:50.960Z,30.78
2019-05-17T13:51:21.583Z,31.20
2019-05-17T13:53:52.360Z,31.46
2019-05-17T13:56:24.553Z,31.11
2019-05-17T13:58:55.797Z,30.43
2019-05-17T14:01:26.508Z,30.80
2019-05-17T14:04:16.021Z,30.90
2019-05-17T14:06:47.232Z,30.90
2019-05-17T14:09:17.882Z,30.90
2019-05-17T14:11:49.093Z,30.96
2019-05-17T14:14:24.405Z,31.33
2019-05-17T14:16:56.674Z,31.24
2019-05-17T14:19:35.163Z,31.13
2019-05-17T14:22:06.796Z,31.91
2019-05-17T14:24:57.964Z,32.68
2019-05-17T14:27:31.869Z,31.31
2019-05-17T14:30:09.248Z,31.36
2019-05-17T14:32:43.783Z,31.86
2019-05-17T14:35:14.313Z,31.39
2019-05-17T14:37:45.060Z,31.52
2019-05-17T14:40:15.688Z,31.55
2019-05-17T14:43:02.703Z,31.64
2019-05-17T14:45:34.105Z,31.66
2019-05-17T14:48:04.821Z,31.86
2019-05-17T14:50:35.228Z,29.97
2019-05-17T14:53:05.929Z,29.53
2019-05-17T14:55:36.511Z,29.56
2019-05-17T14:58:07.246Z,30.34
2019-05-17T15:00:38.074Z,30.67
2019-05-17T15:03:08.474Z,29.45
2019-05-17T15:05:39.092Z,29.42
2019-05-17T15:08:09.731Z,29.83
2019-05-17T15:10:42.891Z,29.57
2019-05-17T15:13:17.900Z,28.37
2019-05-17T15:15:48.672Z,26.98
2019-05-17T15:18:19.232Z,26.30
2019-05-17T15:20:55.772Z,25.93
2019-05-17T15:23:27.607Z,27.21
2019-05-17T15:25:58.741Z,28.13
2019-05-17T15:28:29.109Z,27.45
2019-05-17T15:31:00.379Z,26.54
2019-05-17T15:33:31.195Z,25.77
2019-05-17T15:36:03.570Z,25.29
2019-05-17T15:38:47.677Z,24.89
2019-05-17T15:41:18.597Z,24.66
2019-05-17T15:43:49.205Z,24.37
2019-05-17T15:46:20.992Z,24.32
2019-05-17T15:48:58.884Z,24.20
2019-05-17T15:51:29.185Z,24.11
2019-05-17T15:54:00.312Z,23.97
2019-05-17T15:56:30.727Z,23.79
2019-05-17T15:59:09.067Z,23.68
2019-05-17T16:01:39.686Z,23.60
2019-05-17T16:04:12.911Z,23.58
2019-05-17T16:06:43.608Z,23.47
2019-05-17T16:09:13.872Z,23.25
2019-05-17T16:11:45.757Z,23.14
2019-05-17T16:14:21.677Z,23.04
2019-05-17T16:16:53.906Z,22.91
2019-05-17T16:19:24.355Z,22.73
2019-05-17T16:21:55.133Z,22.62
2019-05-17T16:24:26.937Z,22.53
2019-05-17T16:26:58.792Z,22.39
2019-05-17T16:29:29.047Z,22.28
2019-05-17T16:32:01.587Z,22.19
2019-05-17T16:34:52.131Z,22.14
2019-05-17T16:37:22.420Z,22.08
2019-05-17T16:39:54.532Z,22.03
2019-05-17T16:42:33.142Z,21.96
2019-05-17T16:45:05.400Z,21.83
2019-05-17T16:47:35.632Z,21.66
2019-05-17T16:50:06.773Z,21.52
2019-05-17T16:52:37.666Z,21.39
2019-05-17T16:55:09.063Z,21.26
2019-05-17T16:57:39.504Z,21.14
2019-05-17T17:00:28.248Z,21.07
2019-05-17T17:02:58.890Z,21.02
2019-05-17T17:05:29.506Z,21.04
2019-05-17T17:08:00.038Z,21.12
2019-05-17T17:10:30.415Z,20.91
2019-05-17T17:13:01.303Z,20.76
2019-05-17T17:15:36.971Z,20.71
2019-05-17T17:18:09.386Z,20.67
2019-05-17T17:20:39.918Z,20.71
2019-05-17T17:23:10.540Z,20.68
2019-05-17T17:25:41.826Z,20.70
2019-05-17T17:28:15.600Z,20.85
2019-05-17T17:30:47.414Z,20.86
2019-05-17T17:33:24.111Z,20.86
2019-05-17T17:36:01.046Z,20.81
2019-05-17T17:38:31.334Z,20.83
2019-05-17T17:41:07.634Z,20.88
2019-05-17T17:43:39.658Z,20.86
2019-05-17T17:46:10.271Z,20.70
2019-05-17T17:48:40.918Z,20.61
2019-05-17T17:51:11.645Z,20.44
2019-05-17T17:53:42.206Z,20.27
2019-05-17T17:56:13.699Z,20.08
2019-05-17T17:58:44.715Z,19.91
2019-05-17T18:01:17.421Z,19.79
2019-05-17T18:04:09.359Z,19.70
2019-05-17T18:06:40.124Z,19.42
2019-05-17T18:09:10.751Z,19.44
2019-05-17T18:11:42.768Z,19.34
2019-05-17T18:14:32.127Z,19.29
2019-05-17T18:17:04.091Z,19.13
2019-05-17T18:19:55.985Z,19.08
2019-05-17T18:22:33.885Z,18.93
2019-05-17T18:25:09.102Z,18.79
2019-05-17T18:27:43.377Z,18.77
2019-05-17T18:30:19.938Z,18.77
2019-05-17T18:33:02.935Z,18.63
2019-05-17T18:35:35.298Z,18.52
2019-05-17T18:38:25.315Z,18.43
2019-05-17T18:40:56.897Z,18.34
2019-05-17T18:43:27.615Z,18.36
2019-05-17T18:45:58.347Z,18.38
2019-05-17T18:48:28.622Z,18.34
2019-05-17T18:50:59.253Z,18.28
2019-05-17T18:53:29.831Z,18.21
2019-05-17T18:56:00.318Z,18.01
2019-05-17T18:58:30.868Z,18.18
2019-05-17T19:01:04.083Z,18.32
2019-05-17T19:03:36.358Z,18.29
2019-05-17T19:06:06.582Z,18.19
2019-05-17T19:08:41.732Z,18.12
2019-05-17T19:11:13.658Z,17.98
2019-05-17T19:13:44.390Z,17.86
2019-05-17T19:16:19.822Z,17.68
2019-05-17T19:18:49.661Z,17.43
2019-05-17T19:21:26.298Z,17.31
2019-05-17T19:23:57.596Z,17.22
2019-05-17T19:26:49.713Z,17.16
2019-05-17T19:29:21.022Z,17.12
2019-05-17T19:31:51.592Z,17.00
2019-05-17T19:34:22.965Z,16.93
2019-05-17T19:36:58.752Z,16.88
2019-05-17T19:39:29.183Z,16.86
2019-05-17T19:41:59.709Z,16.88
2019-05-17T19:44:29.996Z,16.83
2019-05-17T19:47:00.912Z,16.90
2019-05-17T19:49:31.525Z,16.81
2019-05-17T19:52:01.842Z,16.67
2019-05-17T19:54:52.058Z,16.60
2019-05-17T19:57:22.488Z,16.52
2019-05-17T19:59:53.185Z,16.42
2019-05-17T20:02:23.747Z,16.43
2019-05-17T20:05:13.934Z,16.45
2019-05-17T20:07:44.630Z,16.74
2019-05-17T20:10:15.369Z,16.82
2019-05-17T20:12:45.985Z,16.65
2019-05-17T20:15:18.549Z,16.49
2019-05-17T20:17:52.526Z,16.36
2019-05-17T20:20:25.174Z,16.20
2019-05-17T20:22:55.795Z,16.08
2019-05-17T20:25:26.650Z,16.06
2019-05-17T20:27:59.322Z,16.08
2019-05-17T20:30:29.657Z,16.13
2019-05-17T20:33:19.710Z,16.06
2019-05-17T20:35:51.413Z,15.99
2019-05-17T20:38:22.000Z,15.72
2019-05-17T20:40:52.404Z,15.47
2019-05-17T20:43:25.872Z,15.43
2019-05-17T20:45:56.350Z,15.43
2019-05-17T20:48:30.609Z,15.46
2019-05-17T20:51:16.973Z,15.47
2019-05-17T20:53:47.909Z,15.52
2019-05-17T20:56:31.989Z,15.44
2019-05-17T20:58:50.921Z,15.70
2019-05-17T21:01:24.035Z,15.89
2019-05-17T21:03:54.668Z,15.91
2019-05-17T21:06:25.738Z,16.01
2019-05-17T21:08:56.409Z,16.09
2019-05-17T21:11:31.042Z,16.03
2019-05-17T21:14:01.771Z,15.85
2019-05-17T21:16:32.350Z,15.81
2019-05-17T21:19:03.046Z,15.47
2019-05-17T21:21:33.397Z,15.08
2019-05-17T21:24:11.668Z,14.76
2019-05-17T21:26:42.010Z,14.58
2019-05-17T21:29:12.623Z,14.49
2019-05-17T21:31:43.052Z,14.46
2019-05-17T21:34:13.601Z,14.44
2019-05-17T21:36:45.161Z,14.35
2019-05-17T21:39:18.262Z,14.27
2019-05-17T21:41:48.645Z,14.22
2019-05-17T21:44:19.340Z,14.16
2019-05-17T21:47:03.638Z,14.23
2019-05-17T21:49:23.705Z,14.39
2019-05-17T21:51:54.142Z,14.31
2019-05-17T21:54:24.709Z,14.10
2019-05-17T21:56:55.196Z,13.91
2019-05-17T21:59:26.443Z,13.83
2019-05-17T22:01:57.380Z,13.94
2019-05-17T22:04:28.019Z,13.89
2019-05-17T22:06:59.101Z,13.97
2019-05-17T22:09:29.599Z,14.11
2019-05-17T22:12:01.860Z,14.05
2019-05-17T22:14:32.733Z,14.05
2019-05-17T22:17:04.245Z,13.99
2019-05-17T22:19:36.145Z,13.95
2019-05-17T22:22:06.481Z,13.96
2019-05-17T22:24:37.155Z,14.04
2019-05-17T22:27:07.595Z,14.15
2019-05-17T22:29:38.930Z,14.26
2019-05-17T22:32:11.266Z,14.34
2019-05-17T22:34:43.692Z,14.47
2019-05-17T22:37:17.351Z,14.51
2019-05-17T22:39:46.358Z,14.42
2019-05-17T22:42:17.930Z,14.47
2019-05-17T22:44:49.395Z,14.41
2019-05-17T22:47:20.011Z,14.13
2019-05-17T22:49:50.439Z,13.92
2019-05-17T22:52:21.056Z,13.83
2019-05-17T22:54:51.761Z,13.58
2019-05-17T22:57:22.338Z,13.50
2019-05-17T22:59:52.966Z,13.53
2019-05-17T23:02:25.079Z,13.71
2019-05-17T23:04:56.173Z,13.80
2019-05-17T23:07:26.745Z,13.75
2019-05-17T23:09:57.336Z,13.84
2019-05-17T23:12:27.970Z,13.81
2019-05-17T23:14:58.595Z,13.75
2019-05-17T23:17:29.194Z,13.81
2019-05-17T23:19:59.834Z,13.86
2019-05-17T23:22:30.428Z,13.95
2019-05-17T23:25:02.080Z,14.06
2019-05-17T23:27:34.831Z,14.15
2019-05-17T23:30:06.008Z,14.20
2019-05-17T23:32:37.039Z,14.17
2019-05-17T23:35:07.212Z,14.21
2019-05-17T23:37:38.793Z,14.25
2019-05-17T23:40:09.413Z,14.27
2019-05-17T23:42:39.939Z,14.28
2019-05-17T23:45:10.287Z,14.32
2019-05-17T23:47:42.540Z,14.32
2019-05-17T23:50:13.162Z,14.30
2019-05-17T23:52:43.842Z,14.28
2019-05-17T23:55:14.013Z,14.26
2019-05-17T23:57:44.547Z,14.25
